createdAt,value
2023-08-28T00:01:01.122Z,24.59
2023-08-28T00:03:32.489Z,24.24
2023-08-28T00:06:02.773Z,24.59
2023-08-28T00:08:30.673Z,24.59
2023-08-28T00:10:58.632Z,24.23
2023-08-28T00:13:26.714Z,24.09
2023-08-28T00:15:54.734Z,23.66
2023-08-28T00:18:23.401Z,23.43
2023-08-28T00:20:51.535Z,23.33
2023-08-28T00:23:19.523Z,23.61
2023-08-28T00:25:47.548Z,23.93
2023-08-28T00:28:15.588Z,23.58
2023-08-28T00:30:44.039Z,23.42
2023-08-28T00:33:12.160Z,23.52
2023-08-28T00:35:41.320Z,23.27
2023-08-28T00:38:10.468Z,23.25
2023-08-28T00:40:41.678Z,23.46
2023-08-28T00:43:10.009Z,23.71
2023-08-28T00:45:44.032Z,23.66
2023-08-28T00:48:14.615Z,23.73
2023-08-28T00:50:43.393Z,23.15
2023-08-28T00:53:13.008Z,23.21
2023-08-28T00:55:41.358Z,23.36
2023-08-28T00:58:09.342Z,23.55
2023-08-28T01:00:38.405Z,23.59
2023-08-28T01:03:06.890Z,23.17
2023-08-28T01:05:50.178Z,23.69
2023-08-28T01:08:24.222Z,23.61
2023-08-28T01:10:58.745Z,23.43
2023-08-28T01:13:40.798Z,23.30
2023-08-28T01:16:11.301Z,23.04
2023-08-28T01:18:39.855Z,23.18
2023-08-28T01:21:08.934Z,23.54
2023-08-28T01:28:05.132Z,23.75
2023-08-28T01:30:33.078Z,23.94
2023-08-28T01:33:01.487Z,23.17
2023-08-28T01:35:32.996Z,23.57
2023-08-28T01:38:38.249Z,23.75
2023-08-28T01:41:10.264Z,22.70
2023-08-28T01:43:43.397Z,22.84
2023-08-28T01:46:12.684Z,23.27
2023-08-28T01:48:52.305Z,23.89
2023-08-28T01:51:22.170Z,23.79
2023-08-28T01:53:51.237Z,23.24
2023-08-28T01:56:26.691Z,22.96
2023-08-28T01:58:57.224Z,23.07
2023-08-28T02:01:27.122Z,23.12
2023-08-28T02:03:55.650Z,23.17
2023-08-28T02:06:23.856Z,23.05
2023-08-28T02:08:53.366Z,23.06
2023-08-28T02:11:21.352Z,23.17
2023-08-28T02:13:49.450Z,23.61
2023-08-28T02:16:21.056Z,23.62
2023-08-28T02:18:50.322Z,23.71
2023-08-28T02:21:18.425Z,23.83
2023-08-28T02:23:46.893Z,24.06
2023-08-28T02:26:14.850Z,23.93
2023-08-28T02:28:42.785Z,24.01
2023-08-28T02:31:10.766Z,24.29
2023-08-28T02:33:38.767Z,23.54
2023-08-28T02:36:06.747Z,22.51
2023-08-28T02:38:34.959Z,22.88
2023-08-28T02:41:10.774Z,23.47
2023-08-28T02:43:39.795Z,23.56
2023-08-28T02:46:07.788Z,23.76
2023-08-28T02:48:35.876Z,24.01
2023-08-28T02:51:03.979Z,24.03
2023-08-28T02:53:32.100Z,24.22
2023-08-28T02:56:18.788Z,24.23
2023-08-28T02:58:47.170Z,24.41
2023-08-28T03:01:15.270Z,23.87
2023-08-28T03:03:43.409Z,22.49
2023-08-28T03:06:11.714Z,22.35
2023-08-28T03:08:39.799Z,23.07
2023-08-28T03:11:07.736Z,23.50
2023-08-28T03:13:36.790Z,23.53
2023-08-28T03:16:05.098Z,23.67
2023-08-28T03:18:33.304Z,23.86
2023-08-28T03:21:01.244Z,23.97
2023-08-28T03:23:29.209Z,23.91
2023-08-28T03:25:57.200Z,23.95
2023-08-28T03:28:25.167Z,24.05
2023-08-28T03:30:57.135Z,24.24
2023-08-28T03:33:25.319Z,24.32
2023-08-28T03:35:53.275Z,23.53
2023-08-28T03:38:21.808Z,22.26
2023-08-28T03:40:49.963Z,21.84
2023-08-28T03:43:17.930Z,22.74
2023-08-28T03:45:46.571Z,23.46
2023-08-28T03:48:14.879Z,23.80
2023-08-28T03:50:42.882Z,23.94
2023-08-28T03:53:10.860Z,23.96
2023-08-28T03:55:39.246Z,24.14
2023-08-28T03:58:09.102Z,24.20
2023-08-28T04:00:37.242Z,24.23
2023-08-28T04:03:05.783Z,24.29
2023-08-28T04:05:39.532Z,24.41
2023-08-28T04:08:07.979Z,23.67
2023-08-28T04:10:36.126Z,22.33
2023-08-28T04:13:04.706Z,21.74
2023-08-28T04:15:33.098Z,22.50
2023-08-28T04:18:01.282Z,23.08
2023-08-28T04:20:31.671Z,23.57
2023-08-28T04:22:59.838Z,23.82
2023-08-28T04:25:30.579Z,24.00
2023-08-28T04:27:58.504Z,24.12
2023-08-28T04:30:28.678Z,24.35
2023-08-28T04:32:56.822Z,24.01
2023-08-28T04:35:24.998Z,22.87
2023-08-28T04:37:53.002Z,22.13
2023-08-28T04:40:21.064Z,22.82
2023-08-28T04:42:49.494Z,23.31
2023-08-28T04:45:18.356Z,23.54
2023-08-28T04:47:46.364Z,23.64
2023-08-28T04:50:14.448Z,23.50
2023-08-28T04:52:44.097Z,23.30
2023-08-28T04:55:12.444Z,23.40
2023-08-28T04:57:40.487Z,23.81
2023-08-28T05:00:09.226Z,24.00
2023-08-28T05:02:37.333Z,24.20
2023-08-28T05:05:05.774Z,23.39
2023-08-28T05:07:35.014Z,22.36
2023-08-28T05:10:04.222Z,23.05
2023-08-28T05:12:32.158Z,23.36
2023-08-28T05:15:00.177Z,23.60
2023-08-28T05:17:29.201Z,23.75
2023-08-28T05:19:57.206Z,23.95
2023-08-28T05:22:25.425Z,24.07
2023-08-28T05:24:53.410Z,24.27
2023-08-28T05:27:21.475Z,23.56
2023-08-28T05:29:52.881Z,22.61
2023-08-28T05:32:22.071Z,22.78
2023-08-28T05:34:52.070Z,22.87
2023-08-28T05:37:21.585Z,23.08
2023-08-28T05:39:49.606Z,23.27
2023-08-28T05:42:18.007Z,23.45
2023-08-28T05:44:46.601Z,23.56
2023-08-28T05:47:14.710Z,23.77
2023-08-28T05:49:42.746Z,23.90
2023-08-28T05:52:11.419Z,24.13
2023-08-28T05:54:39.384Z,24.27
2023-08-28T05:57:08.233Z,24.34
2023-08-28T05:59:36.217Z,24.30
2023-08-28T06:02:06.002Z,24.43
2023-08-28T06:04:34.971Z,24.57
2023-08-28T06:07:03.095Z,24.52
2023-08-28T06:09:31.236Z,24.65
2023-08-28T06:11:59.161Z,24.82
2023-08-28T06:14:27.146Z,24.90
2023-08-28T06:16:55.095Z,25.02
2023-08-28T06:19:23.083Z,25.12
2023-08-28T06:21:51.069Z,25.19
2023-08-28T06:24:19.036Z,25.10
2023-08-28T06:26:46.944Z,23.83
2023-08-28T06:29:17.278Z,23.05
2023-08-28T06:31:45.619Z,23.75
2023-08-28T06:34:16.001Z,24.32
2023-08-28T06:36:46.641Z,24.57
2023-08-28T06:39:14.629Z,24.70
2023-08-28T06:41:42.629Z,24.76
2023-08-28T06:44:10.703Z,24.99
2023-08-28T06:46:39.095Z,25.26
2023-08-28T06:49:07.262Z,25.19
2023-08-28T06:51:35.318Z,25.04
2023-08-28T06:54:03.937Z,24.80
2023-08-28T06:56:32.055Z,24.82
2023-08-28T06:59:00.080Z,24.31
2023-08-28T07:01:28.108Z,22.99
2023-08-28T07:03:56.092Z,22.57
2023-08-28T07:06:24.124Z,22.93
2023-08-28T07:08:52.202Z,23.05
2023-08-28T07:11:20.120Z,23.30
2023-08-28T07:13:48.064Z,23.50
2023-08-28T07:16:16.029Z,23.40
2023-08-28T07:18:44.851Z,23.59
2023-08-28T07:21:12.823Z,23.86
2023-08-28T07:23:40.803Z,24.10
2023-08-28T07:26:08.794Z,24.20
2023-08-28T07:28:36.765Z,24.42
2023-08-28T07:31:05.311Z,24.60
2023-08-28T07:33:33.357Z,24.54
2023-08-28T07:36:01.285Z,24.47
2023-08-28T07:38:29.224Z,24.50
2023-08-28T07:40:57.182Z,24.53
2023-08-28T07:43:25.254Z,24.69
2023-08-28T07:45:53.446Z,24.75
2023-08-28T07:48:21.511Z,24.93
2023-08-28T07:50:49.598Z,25.14
2023-08-28T07:53:17.871Z,25.27
2023-08-28T07:55:45.930Z,25.52
2023-08-28T07:58:14.892Z,25.51
2023-08-28T08:00:46.049Z,24.51
2023-08-28T08:03:14.071Z,23.94
2023-08-28T08:05:42.689Z,24.68
2023-08-28T08:08:39.867Z,25.33
2023-08-28T08:11:07.799Z,25.60
2023-08-28T08:13:35.831Z,25.05
2023-08-28T08:16:05.830Z,23.99
2023-08-28T08:18:34.097Z,24.14
2023-08-28T08:21:02.193Z,24.67
2023-08-28T08:23:30.185Z,25.01
2023-08-28T08:25:59.761Z,25.23
2023-08-28T08:28:27.696Z,25.03
2023-08-28T08:30:56.853Z,24.07
2023-08-28T08:33:24.981Z,23.56
2023-08-28T08:35:53.069Z,24.20
2023-08-28T08:38:24.075Z,24.77
2023-08-28T08:40:54.206Z,25.11
2023-08-28T08:43:22.416Z,25.17
2023-08-28T08:45:52.072Z,24.14
2023-08-28T08:48:22.796Z,23.39
2023-08-28T08:50:51.272Z,24.10
2023-08-28T08:53:29.605Z,24.77
2023-08-28T08:56:01.384Z,25.23
2023-08-28T08:58:31.520Z,25.58
2023-08-28T09:01:00.797Z,25.59
2023-08-28T09:03:31.188Z,24.63
2023-08-28T09:06:00.556Z,23.75
2023-08-28T09:08:30.143Z,24.00
2023-08-28T09:11:01.923Z,24.94
2023-08-28T09:13:30.033Z,25.33
2023-08-28T09:15:58.763Z,24.64
2023-08-28T09:18:27.687Z,23.77
2023-08-28T09:21:12.555Z,23.71
2023-08-28T09:23:51.069Z,24.87
2023-08-28T09:26:21.780Z,25.65
2023-08-28T09:29:05.293Z,25.72
2023-08-28T09:31:38.984Z,24.79
2023-08-28T09:34:09.466Z,23.74
2023-08-28T09:37:01.594Z,23.33
2023-08-28T09:40:36.225Z,24.35
2023-08-28T09:43:14.611Z,25.13
2023-08-28T09:45:44.533Z,24.63
2023-08-28T09:48:13.190Z,23.67
2023-08-28T09:50:43.037Z,23.25
2023-08-28T09:53:13.454Z,24.27
2023-08-28T09:55:50.975Z,25.28
2023-08-28T09:58:20.279Z,25.19
2023-08-28T10:00:49.059Z,24.10
2023-08-28T10:03:18.163Z,23.44
2023-08-28T10:05:47.348Z,23.42
2023-08-28T10:08:18.790Z,24.62
2023-08-28T10:10:52.070Z,25.56
2023-08-28T10:13:23.608Z,25.53
2023-08-28T10:15:59.356Z,24.70
2023-08-28T10:18:36.117Z,24.05
2023-08-28T10:21:04.620Z,24.10
2023-08-28T10:23:34.383Z,24.94
2023-08-28T10:26:07.612Z,24.75
2023-08-28T10:28:37.122Z,23.71
2023-08-28T10:31:06.495Z,23.32
2023-08-28T10:33:37.931Z,24.18
2023-08-28T10:36:11.758Z,24.80
2023-08-28T10:38:56.495Z,24.50
2023-08-28T10:41:27.484Z,23.53
2023-08-28T10:43:57.375Z,23.22
2023-08-28T10:46:29.155Z,24.19
2023-08-28T10:49:01.275Z,25.04
2023-08-28T10:51:37.925Z,25.35
2023-08-28T10:54:10.823Z,24.55
2023-08-28T10:56:40.576Z,23.79
2023-08-28T10:59:25.791Z,23.69
2023-08-28T11:01:53.966Z,24.75
2023-08-28T11:04:23.642Z,25.08
2023-08-28T11:06:52.035Z,24.35
2023-08-28T11:09:29.036Z,23.60
2023-08-28T11:12:00.356Z,23.40
2023-08-28T11:14:58.920Z,24.42
2023-08-28T11:17:27.159Z,24.83
2023-08-28T11:19:57.154Z,24.05
2023-08-28T11:22:43.595Z,23.35
2023-08-28T11:25:14.028Z,23.81
2023-08-28T11:27:48.492Z,24.93
2023-08-28T11:30:21.749Z,25.25
2023-08-28T11:32:54.251Z,24.46
2023-08-28T11:35:24.230Z,23.78
2023-08-28T11:37:54.934Z,23.34
2023-08-28T11:40:27.061Z,23.30
2023-08-28T11:43:09.481Z,24.38
2023-08-28T11:45:37.589Z,25.23
2023-08-28T11:48:07.435Z,24.74
2023-08-28T11:50:35.961Z,23.78
2023-08-28T11:53:04.448Z,23.14
2023-08-28T11:55:35.330Z,23.07
2023-08-28T11:58:07.064Z,24.18
2023-08-28T12:00:35.240Z,25.17
2023-08-28T12:03:07.883Z,25.46
2023-08-28T12:05:36.664Z,24.68
2023-08-28T12:08:05.678Z,24.08
2023-08-28T12:10:33.863Z,23.67
2023-08-28T12:13:02.185Z,23.75
2023-08-28T12:15:34.673Z,24.95
2023-08-28T12:18:04.951Z,25.42
2023-08-28T12:20:35.157Z,24.65
2023-08-28T12:23:03.901Z,23.93
2023-08-28T12:25:43.201Z,23.49
2023-08-28T12:28:12.239Z,23.63
2023-08-28T12:30:41.534Z,25.09
2023-08-28T12:33:10.235Z,25.93
2023-08-28T12:35:40.317Z,25.41
2023-08-28T12:38:08.767Z,24.82
2023-08-28T12:40:38.103Z,24.33
2023-08-28T12:43:12.733Z,23.89
2023-08-28T12:45:41.427Z,23.51
2023-08-28T12:48:09.540Z,23.22
2023-08-28T12:50:37.910Z,23.50
2023-08-28T12:53:06.421Z,24.99
2023-08-28T12:55:34.965Z,25.85
2023-08-28T12:58:03.148Z,25.31
2023-08-28T13:00:31.215Z,24.62
2023-08-28T13:02:59.435Z,24.07
2023-08-28T13:05:27.546Z,23.69
2023-08-28T13:07:55.527Z,23.37
2023-08-28T13:10:23.547Z,23.14
2023-08-28T13:12:51.560Z,23.32
2023-08-28T13:15:19.530Z,24.72
2023-08-28T13:18:15.031Z,25.50
2023-08-28T13:20:45.251Z,24.71
2023-08-28T13:23:13.260Z,24.07
2023-08-28T13:25:42.071Z,23.66
2023-08-28T13:28:10.040Z,23.30
2023-08-28T13:30:39.373Z,23.35
2023-08-28T13:33:07.727Z,24.64
2023-08-28T13:35:37.440Z,25.35
2023-08-28T13:38:05.736Z,24.76
2023-08-28T13:40:33.754Z,24.08
2023-08-28T13:43:04.107Z,23.55
2023-08-28T13:45:34.058Z,23.56
2023-08-28T13:48:02.284Z,24.78
2023-08-28T13:50:30.332Z,25.53
2023-08-28T13:52:58.394Z,24.87
2023-08-28T13:55:26.544Z,24.03
2023-08-28T13:57:54.574Z,23.42
2023-08-28T14:00:23.176Z,23.42
2023-08-28T14:02:51.135Z,24.76
2023-08-28T14:05:19.183Z,25.93
2023-08-28T14:07:47.208Z,26.27
2023-08-28T14:10:17.377Z,25.38
2023-08-28T14:12:45.312Z,24.43
2023-08-28T14:15:13.487Z,23.79
2023-08-28T14:17:41.629Z,23.67
2023-08-28T14:20:10.396Z,24.91
2023-08-28T14:22:38.393Z,25.88
2023-08-28T14:25:06.894Z,25.36
2023-08-28T14:27:42.437Z,24.36
2023-08-28T14:30:20.715Z,23.53
2023-08-28T14:32:48.823Z,23.38
2023-08-28T14:35:17.085Z,24.44
2023-08-28T14:37:45.245Z,25.34
2023-08-28T14:40:13.181Z,25.52
2023-08-28T14:42:41.163Z,24.60
2023-08-28T14:45:09.622Z,23.66
2023-08-28T14:47:37.575Z,23.41
2023-08-28T14:50:06.853Z,24.40
2023-08-28T14:52:34.805Z,25.23
2023-08-28T14:55:04.650Z,25.66
2023-08-28T14:57:32.718Z,25.56
2023-08-28T15:00:00.751Z,24.57
2023-08-28T15:02:29.395Z,23.95
2023-08-28T15:04:57.574Z,24.69
2023-08-28T15:07:25.608Z,25.35
2023-08-28T15:09:53.706Z,25.61
2023-08-28T15:12:22.271Z,25.56
2023-08-28T15:14:50.263Z,24.44
2023-08-28T15:17:18.232Z,23.72
2023-08-28T15:19:46.225Z,24.46
2023-08-28T15:22:14.257Z,25.13
2023-08-28T15:24:42.225Z,25.46
2023-08-28T15:27:10.696Z,25.62
2023-08-28T15:29:38.625Z,25.74
2023-08-28T15:32:06.697Z,25.58
2023-08-28T15:34:34.647Z,24.52
2023-08-28T15:37:02.577Z,23.85
2023-08-28T15:39:30.543Z,24.51
2023-08-28T15:41:59.194Z,25.24
2023-08-28T15:44:27.980Z,25.67
2023-08-28T15:46:55.934Z,25.89
2023-08-28T15:49:23.934Z,25.94
2023-08-28T15:51:52.244Z,26.05
2023-08-28T15:54:20.309Z,26.15
2023-08-28T15:56:48.519Z,26.27
2023-08-28T15:59:17.046Z,26.44
2023-08-28T16:01:47.071Z,26.31
2023-08-28T16:04:16.774Z,25.43
2023-08-28T16:06:44.755Z,24.71
2023-08-28T16:09:13.645Z,25.26
2023-08-28T16:11:52.038Z,25.79
2023-08-28T16:14:19.998Z,26.10
2023-08-28T16:16:48.000Z,26.24
2023-08-28T16:19:16.026Z,26.45
2023-08-28T16:21:44.019Z,26.25
2023-08-28T16:24:14.837Z,25.16
2023-08-28T16:26:42.929Z,24.56
2023-08-28T16:29:11.083Z,25.30
2023-08-28T16:31:39.065Z,25.98
2023-08-28T16:34:07.166Z,26.35
2023-08-28T16:36:35.167Z,26.61
2023-08-28T16:39:03.885Z,26.49
2023-08-28T16:41:32.098Z,25.39
2023-08-28T16:44:00.400Z,24.60
2023-08-28T16:46:28.580Z,25.19
2023-08-28T16:48:57.383Z,25.85
2023-08-28T16:51:25.550Z,26.18
2023-08-28T16:53:53.810Z,26.17
2023-08-28T16:56:21.969Z,26.01
2023-08-28T16:58:50.447Z,25.80
2023-08-28T17:01:18.561Z,25.65
2023-08-28T17:03:46.743Z,25.73
2023-08-28T17:06:14.970Z,25.86
2023-08-28T17:08:43.126Z,25.91
2023-08-28T17:11:11.321Z,25.91
2023-08-28T17:13:40.368Z,25.93
2023-08-28T17:16:08.352Z,25.78
2023-08-28T17:18:38.230Z,25.60
2023-08-28T17:21:06.361Z,25.63
2023-08-28T17:23:34.399Z,25.80
2023-08-28T17:26:02.440Z,25.89
2023-08-28T17:28:30.414Z,25.93
2023-08-28T17:30:59.979Z,25.98
2023-08-28T17:33:28.192Z,26.14
2023-08-28T17:35:56.264Z,26.19
2023-08-28T17:38:30.321Z,26.07
2023-08-28T17:41:00.831Z,26.10
2023-08-28T17:43:29.687Z,25.98
2023-08-28T17:45:59.223Z,25.98
2023-08-28T17:48:27.215Z,26.07
2023-08-28T17:50:55.891Z,26.17
2023-08-28T17:53:23.957Z,26.23
2023-08-28T17:55:53.797Z,26.09
2023-08-28T17:58:22.192Z,26.16
2023-08-28T18:00:53.729Z,25.97
2023-08-28T18:03:37.137Z,24.99
2023-08-28T18:06:07.683Z,24.17
2023-08-28T18:08:35.900Z,24.59
2023-08-28T18:11:04.957Z,25.10
2023-08-28T18:15:01.590Z,25.27
2023-08-28T18:19:11.132Z,25.21
2023-08-28T18:22:43.545Z,25.47
2023-08-28T18:25:29.026Z,25.53
2023-08-28T18:28:06.971Z,25.49
2023-08-28T18:30:36.960Z,25.56
2023-08-28T18:33:05.649Z,25.47
2023-08-28T18:35:36.915Z,25.43
2023-08-28T18:38:06.592Z,25.55
2023-08-28T18:41:06.541Z,25.46
2023-08-28T18:43:38.162Z,25.45
2023-08-28T18:46:06.712Z,25.58
2023-08-28T18:52:53.954Z,25.86
2023-08-28T18:55:32.802Z,25.82
2023-08-28T18:58:10.657Z,25.86
2023-08-28T19:00:58.858Z,25.74
2023-08-28T19:03:27.457Z,25.53
2023-08-28T19:05:56.365Z,25.60
2023-08-28T19:08:24.418Z,25.80
2023-08-28T19:10:54.577Z,25.86
2023-08-28T19:13:22.640Z,25.75
2023-08-28T19:15:51.340Z,25.61
2023-08-28T19:18:21.701Z,25.69
2023-08-28T19:21:01.114Z,25.71
2023-08-28T19:23:31.138Z,25.76
2023-08-28T19:30:07.019Z,26.04
2023-08-28T19:32:38.707Z,26.13
2023-08-28T19:35:13.390Z,26.25
2023-08-28T19:37:42.683Z,26.23
2023-08-28T19:40:13.514Z,26.07
2023-08-28T19:42:43.244Z,26.01
2023-08-28T19:45:12.503Z,25.93
2023-08-28T19:47:40.668Z,25.83
2023-08-28T19:50:09.204Z,25.91
2023-08-28T19:52:39.295Z,25.98
2023-08-28T19:55:08.457Z,26.00
2023-08-28T19:57:38.455Z,26.04
2023-08-28T20:00:07.564Z,26.09
2023-08-28T20:02:36.924Z,26.10
2023-08-28T20:05:05.995Z,26.13
2023-08-28T20:07:34.767Z,26.09
2023-08-28T20:10:02.891Z,26.14
2023-08-28T20:12:30.885Z,26.19
2023-08-28T20:14:58.973Z,26.30
2023-08-28T20:17:28.035Z,26.32
2023-08-28T20:19:56.294Z,26.36
2023-08-28T20:22:24.415Z,26.41
2023-08-28T20:24:52.395Z,26.37
2023-08-28T20:27:20.438Z,26.37
2023-08-28T20:29:48.521Z,26.35
2023-08-28T20:32:16.883Z,26.40
2023-08-28T20:34:45.007Z,26.41
2023-08-28T20:37:12.958Z,26.48
2023-08-28T20:39:40.930Z,26.63
2023-08-28T20:42:08.890Z,26.66
2023-08-28T20:44:39.204Z,26.77
2023-08-28T20:47:07.242Z,26.89
2023-08-28T20:49:37.183Z,26.91
2023-08-28T20:52:05.677Z,26.62
2023-08-28T20:54:33.616Z,25.39
2023-08-28T20:57:01.553Z,24.67
2023-08-28T20:59:29.732Z,25.30
2023-08-28T21:01:57.611Z,25.95
2023-08-28T21:04:25.610Z,26.19
2023-08-28T21:06:53.543Z,26.33
2023-08-28T21:09:21.544Z,26.42
2023-08-28T21:11:49.512Z,26.55
2023-08-28T21:14:17.450Z,26.40
2023-08-28T21:16:45.641Z,26.43
2023-08-28T21:19:27.179Z,26.48
2023-08-28T21:21:55.667Z,26.58
2023-08-28T21:24:23.768Z,26.32
2023-08-28T21:26:51.724Z,25.11
2023-08-28T21:29:19.652Z,24.35
2023-08-28T21:31:49.638Z,24.91
2023-08-28T21:34:18.029Z,25.49
2023-08-28T21:36:45.984Z,25.75
2023-08-28T21:39:14.109Z,25.87
2023-08-28T21:41:42.043Z,25.90
2023-08-28T21:44:10.648Z,25.96
2023-08-28T21:46:38.714Z,25.96
2023-08-28T21:49:25.758Z,25.95
2023-08-28T21:52:12.369Z,25.98
2023-08-28T21:55:00.056Z,25.95
2023-08-28T21:57:46.906Z,25.98
2023-08-28T22:00:38.012Z,26.01
2023-08-28T22:03:24.580Z,26.09
2023-08-28T22:06:11.403Z,26.03
2023-08-28T22:08:39.687Z,26.11
2023-08-28T22:11:26.214Z,26.15
2023-08-28T22:13:57.561Z,26.13
2023-08-28T22:16:25.605Z,26.21
2023-08-28T22:18:54.139Z,26.20
2023-08-28T22:21:22.099Z,26.07
2023-08-28T22:23:50.059Z,25.98
2023-08-28T22:26:18.219Z,25.92
2023-08-28T22:28:46.161Z,25.92
2023-08-28T22:31:14.197Z,25.98
2023-08-28T22:33:42.105Z,26.03
2023-08-28T22:36:11.679Z,26.09
2023-08-28T22:38:40.745Z,26.08
2023-08-28T22:41:08.825Z,26.17
2023-08-28T22:43:36.780Z,26.15
2023-08-28T22:46:04.781Z,26.06
2023-08-28T22:48:32.899Z,26.07
2023-08-28T22:51:01.443Z,26.19
2023-08-28T22:53:29.458Z,26.22
2023-08-28T22:55:57.451Z,26.22
2023-08-28T22:58:25.565Z,26.31
2023-08-28T23:00:53.620Z,26.39
2023-08-28T23:03:21.665Z,26.43
2023-08-28T23:05:49.950Z,26.51
2023-08-28T23:08:17.925Z,26.56
2023-08-28T23:10:46.093Z,26.66
2023-08-28T23:13:14.074Z,26.78
2023-08-28T23:15:46.655Z,26.81
2023-08-28T23:18:16.501Z,26.75
2023-08-28T23:20:44.747Z,26.78
2023-08-28T23:23:12.902Z,26.76
2023-08-28T23:25:40.868Z,26.86
2023-08-28T23:28:09.566Z,26.97
2023-08-28T23:30:37.666Z,27.04
2023-08-28T23:33:05.807Z,26.92
2023-08-28T23:35:33.791Z,26.79
2023-08-28T23:38:02.205Z,26.82
2023-08-28T23:40:32.008Z,26.88
2023-08-28T23:43:00.050Z,26.98
2023-08-28T23:45:27.988Z,27.10
2023-08-28T23:47:55.968Z,27.17
2023-08-28T23:50:23.951Z,27.22
2023-08-28T23:52:52.241Z,27.25
2023-08-28T23:55:20.246Z,27.29
2023-08-28T23:57:48.156Z,27.31
